Time;durP1;ratioP1;P1;durP2;ratioP2;P2;SDS_P1;SDS_P2;PMS_P1;PMS_P2;Temp;Humidity;BMP_temperature;BMP_pressure;BME280_temperature;BME280_humidity;BME280_pressure;Samples;Min_cycle;Max_cycle;Signal;HPM_P1;HPM_P2
2022/05/08 00:00:11;;;;;;;12.40;4.90;;;;;;;12.40;30.49;100219.39;25197;1313;3026964;-64
2022/05/08 00:02:44;;;;;;;18.70;5.30;;;;;;;12.34;30.76;100220.80;25140;1313;3058905;-63
2022/05/08 00:05:14;;;;;;;13.60;4.30;;;;;;;12.29;30.93;100221.73;25179;1313;3026842;-62
2022/05/08 00:07:43;;;;;;;17.40;4.90;;;;;;;12.22;30.91;100226.85;25217;1312;3026695;-62
2022/05/08 00:10:12;;;;;;;18.00;5.50;;;;;;;12.11;31.13;100224.52;25100;1313;3058547;-64
2022/05/08 00:12:41;;;;;;;17.00;5.20;;;;;;;12.04;31.45;100223.65;25156;1313;3028126;-64
2022/05/08 00:15:11;;;;;;;15.30;5.40;;;;;;;12.01;31.63;100218.55;25168;1313;3054604;-65
2022/05/08 00:17:44;;;;;;;16.50;5.60;;;;;;;11.95;31.81;100217.61;25158;1313;3027525;-68
2022/05/08 00:20:13;;;;;;;23.80;6.00;;;;;;;11.90;31.91;100220.16;25216;1313;3026404;-65
2022/05/08 00:22:43;;;;;;;26.40;6.90;;;;;;;11.85;31.96;100222.71;25179;1313;3026613;-63
2022/05/08 00:25:12;;;;;;;26.10;7.50;;;;;;;11.83;32.00;100223.35;25155;1313;3058284;-63
2022/05/08 00:27:41;;;;;;;19.40;5.90;;;;;;;11.81;32.00;100219.08;25109;1313;3026439;-64
2022/05/08 00:30:11;;;;;;;28.80;8.30;;;;;;;11.78;32.21;100220.63;25154;1313;3026718;-64
2022/05/08 00:32:40;;;;;;;27.10;6.70;;;;;;;11.71;32.12;100213.29;25145;1313;3056774;-64
2022/05/08 00:35:10;;;;;;;24.10;6.90;;;;;;;11.65;32.58;100215.54;25178;1313;3027008;-64
2022/05/08 00:37:39;;;;;;;26.60;7.10;;;;;;;11.56;32.75;100217.55;25204;1313;3055281;-65
2022/05/08 00:40:08;;;;;;;21.10;6.50;;;;;;;11.49;32.99;100211.61;25142;1313;3026506;-64
2022/05/08 00:42:38;;;;;;;23.80;7.50;;;;;;;11.45;33.10;100210.81;25143;1313;3055291;-63
2022/05/08 00:45:08;;;;;;;23.60;6.80;;;;;;;11.42;33.25;100204.83;25152;1313;3028319;-64
2022/05/08 00:47:38;;;;;;;24.60;7.60;;;;;;;11.36;33.68;100205.83;25165;1313;3027359;-64
2022/05/08 00:50:08;;;;;;;21.70;7.20;;;;;;;11.32;33.65;100207.95;25136;1313;3026281;-63
2022/05/08 00:52:37;;;;;;;29.60;7.80;;;;;;;11.32;33.76;100206.76;25210;1313;3026756;-64
2022/05/08 00:55:06;;;;;;;26.80;6.90;;;;;;;11.27;33.85;100207.70;25140;1313;3027018;-64
2022/05/08 00:57:36;;;;;;;22.70;7.20;;;;;;;11.30;33.80;100203.66;25117;1313;3049439;-63
2022/05/08 01:00:08;;;;;;;27.50;7.80;;;;;;;11.25;33.99;100198.67;25194;1313;3027279;-64
2022/05/08 01:02:40;;;;;;;27.10;8.10;;;;;;;11.19;34.04;100197.59;24794;1313;3566454;-62
2022/05/08 01:05:09;;;;;;;21.00;7.20;;;;;;;11.14;34.16;100195.55;25085;1313;3026816;-64
2022/05/08 01:07:37;;;;;;;24.50;7.70;;;;;;;11.13;34.33;100192.27;25157;1313;3055061;-64
2022/05/08 01:10:08;;;;;;;28.20;7.80;;;;;;;11.06;34.66;100192.80;25225;1313;3026828;-64
2022/05/08 01:12:44;;;;;;;28.50;7.40;;;;;;;11.07;34.77;100195.74;25148;1313;3028684;-64
2022/05/08 01:15:15;;;;;;;33.80;8.70;;;;;;;11.03;34.81;100192.05;25186;1313;3051014;-64
2022/05/08 01:17:45;;;;;;;28.30;7.80;;;;;;;10.98;34.96;100189.68;25141;1312;3026534;-64
2022/05/08 01:20:15;;;;;;;31.20;8.00;;;;;;;10.94;35.42;100189.92;25138;1313;3027068;-64
2022/05/08 01:22:44;;;;;;;27.50;7.00;;;;;;;10.92;35.46;100189.31;25167;1313;3027599;-65
2022/05/08 01:25:15;;;;;;;27.40;7.00;;;;;;;10.95;35.53;100186.89;25187;1311;3027005;-63
2022/05/08 01:27:45;;;;;;;21.00;6.60;;;;;;;10.97;35.81;100190.27;25191;1313;3026993;-64
2022/05/08 01:30:14;;;;;;;23.30;7.80;;;;;;;10.98;35.44;100189.35;25159;1311;3026877;-63
2022/05/08 01:32:44;;;;;;;24.10;6.80;;;;;;;10.86;35.59;100188.89;25116;1313;3049746;-63
2022/05/08 01:35:13;;;;;;;21.20;6.40;;;;;;;10.79;36.09;100183.14;25152;1313;3026819;-64
2022/05/08 01:37:46;;;;;;;21.20;6.60;;;;;;;10.82;36.15;100178.10;25203;1313;3058721;-63
2022/05/08 01:40:17;;;;;;;20.90;6.50;;;;;;;10.81;36.17;100178.27;25115;1313;3026980;-63
2022/05/08 01:42:46;;;;;;;20.80;6.90;;;;;;;10.81;36.28;100177.96;25195;1313;3028672;-64
2022/05/08 01:45:15;;;;;;;24.00;6.80;;;;;;;10.78;36.32;100177.73;25221;1313;3026385;-63
2022/05/08 01:50:32;;;;;;;19.50;6.00;;;;;;;10.83;36.46;100177.66;25087;1313;3056200;-62
2022/05/08 01:53:02;;;;;;;18.00;6.30;;;;;;;10.87;36.40;100176.26;25139;1313;3026790;-64
2022/05/08 01:55:31;;;;;;;25.10;6.50;;;;;;;10.92;36.38;100177.91;25145;1313;3050210;-63
2022/05/08 01:58:01;;;;;;;19.30;6.30;;;;;;;10.84;36.54;100178.33;25133;1313;3026733;-64
2022/05/08 02:00:31;;;;;;;23.70;7.30;;;;;;;10.78;36.35;100179.48;25186;1312;3057548;-64
2022/05/08 02:03:01;;;;;;;23.10;6.80;;;;;;;10.73;36.96;100184.45;25142;1313;3026436;-63
2022/05/08 02:05:30;;;;;;;24.50;6.10;;;;;;;10.75;36.91;100188.41;25150;1312;3055335;-64
2022/05/08 02:08:01;;;;;;;18.70;6.40;;;;;;;10.82;36.82;100181.23;25126;1313;3026934;-64
2022/05/08 02:10:30;;;;;;;27.20;7.00;;;;;;;10.83;36.72;100185.71;25149;1313;3028831;-63
2022/05/08 02:12:59;;;;;;;34.90;7.10;;;;;;;10.83;36.74;100183.40;25216;1313;3026883;-61
2022/05/08 02:15:29;;;;;;;19.60;5.90;;;;;;;10.84;36.63;100180.08;25134;1312;3058655;-63
2022/05/08 02:18:03;;;;;;;;;;;;;;;10.93;36.51;100184.89;25150;1313;3049499;-64
2022/05/08 02:20:32;;;;;;;14.60;4.50;;;;;;;11.01;36.99;100180.98;25133;1313;3028735;-63
2022/05/08 02:25:10;;;;;;;20.30;5.20;;;;;;;11.24;35.95;100188.20;31539;1319;3025985;-62
2022/05/08 02:27:41;;;;;;;25.50;7.60;;;;;;;11.43;35.32;100193.33;25596;1322;3026607;-62
2022/05/08 02:30:11;;;;;;;14.80;5.10;;;;;;;11.68;35.44;100192.36;25718;1319;3027240;-63
2022/05/08 02:32:42;;;;;;;24.10;6.30;;;;;;;11.76;34.55;100191.94;25751;1319;3027097;-64
2022/05/08 02:35:12;;;;;;;21.30;6.10;;;;;;;11.85;34.59;100195.70;25298;1319;3029077;-64
2022/05/08 02:37:41;;;;;;;17.70;5.60;;;;;;;11.88;35.34;100197.83;24806;1319;3262177;-63
2022/05/08 02:40:10;;;;;;;14.50;5.40;;;;;;;11.76;35.88;100196.02;25098;1319;3057535;-63
2022/05/08 02:42:40;;;;;;;14.20;4.90;;;;;;;11.71;35.88;100197.30;25075;1319;3026696;-64
2022/05/08 02:45:09;;;;;;;14.70;5.00;;;;;;;11.63;36.39;100198.63;25063;1316;3026568;-64
2022/05/08 02:47:40;;;;;;;23.90;5.30;;;;;;;11.51;36.80;100198.91;25114;1313;3026520;-64
2022/05/08 02:50:10;;;;;;;14.40;4.70;;;;;;;11.22;37.74;100202.50;25069;1316;3026833;-62
2022/05/08 02:52:39;;;;;;;16.60;5.40;;;;;;;11.23;37.53;100211.72;25041;1316;3026856;-63
2022/05/08 03:00:48;;;;;;;19.90;4.80;;;;;;;11.39;37.66;100220.06;25098;1315;3051500;-62
2022/05/08 03:03:17;;;;;;;11.60;4.30;;;;;;;11.46;37.58;100223.58;25110;1316;3026765;-65
2022/05/08 03:05:47;;;;;;;16.70;5.30;;;;;;;11.52;37.03;100220.77;25121;1316;3026613;-63
2022/05/08 03:08:17;;;;;;;16.80;4.50;;;;;;;11.54;36.63;100222.79;25034;1316;3028620;-63
2022/05/08 03:13:40;;;;;;;12.70;4.90;;;;;;;11.70;36.85;100222.45;25125;1316;3054149;-63
2022/05/08 03:16:10;;;;;;;20.30;4.80;;;;;;;11.73;36.66;100222.09;25015;1316;3056248;-64
2022/05/08 03:18:40;;;;;;;19.80;5.50;;;;;;;11.79;36.67;100226.39;25133;1316;3028532;-65
2022/05/08 03:21:09;;;;;;;12.90;4.40;;;;;;;11.83;36.44;100229.33;25115;1322;3026833;-63
2022/05/08 03:23:40;;;;;;;17.50;4.70;;;;;;;11.88;36.18;100224.64;25098;1316;3027843;-65
2022/05/08 03:26:09;;;;;;;19.20;5.10;;;;;;;11.92;36.36;100224.09;25122;1316;3027046;-63
2022/05/08 03:28:38;;;;;;;16.10;5.40;;;;;;;11.93;36.37;100223.35;25104;1316;3055208;-64
2022/05/08 03:31:08;;;;;;;13.90;4.30;;;;;;;11.97;36.24;100224.58;25127;1316;3026256;-64
2022/05/08 03:33:39;;;;;;;22.20;5.20;;;;;;;11.98;36.21;100225.55;25138;1317;3050791;-63
2022/05/08 03:36:11;;;;;;;23.60;5.20;;;;;;;11.97;36.07;100229.48;25130;1316;3026781;-63
2022/05/08 03:38:44;;;;;;;28.70;5.60;;;;;;;12.02;35.92;100227.80;25116;1316;3026870;-63
2022/05/08 03:41:17;;;;;;;16.00;5.30;;;;;;;12.11;35.76;100229.77;25089;1316;3069755;-64
2022/05/08 03:43:46;;;;;;;19.80;6.20;;;;;;;12.15;36.45;100239.19;25116;1316;3026923;-64
2022/05/08 03:46:15;;;;;;;14.80;4.90;;;;;;;12.17;36.11;100238.05;25150;1315;3026247;-64
2022/05/08 03:48:44;;;;;;;22.50;5.30;;;;;;;12.22;35.66;100239.86;25112;1316;3069585;-64
2022/05/08 03:51:13;;;;;;;17.80;5.50;;;;;;;12.23;35.81;100235.08;25145;1316;3026666;-65
2022/05/08 03:53:44;;;;;;;27.50;6.30;;;;;;;12.25;35.91;100237.79;25110;1316;3052096;-65
2022/05/08 03:56:13;;;;;;;16.50;6.60;;;;;;;12.33;35.68;100239.29;25071;1316;3027084;-64
2022/05/08 03:58:42;;;;;;;19.50;5.70;;;;;;;12.42;35.57;100235.42;25115;1316;3055403;-63
2022/05/08 04:01:11;;;;;;;30.20;6.30;;;;;;;12.54;35.12;100239.69;25066;1316;3026731;-63
2022/05/08 04:03:40;;;;;;;24.70;6.60;;;;;;;12.66;34.84;100236.02;25125;1316;3048847;-64
2022/05/08 04:06:08;;;;;;;22.40;5.80;;;;;;;12.76;34.86;100242.14;25167;1316;3027455;-64
2022/05/08 04:08:38;;;;;;;34.80;6.90;;;;;;;12.85;35.30;100238.83;25133;1316;3058362;-64
2022/05/08 04:11:08;;;;;;;21.10;6.50;;;;;;;12.89;35.80;100241.05;25116;1315;3028787;-67
2022/05/08 04:13:38;;;;;;;20.70;6.20;;;;;;;12.90;36.70;100247.12;25154;1315;3027445;-63
2022/05/08 04:16:16;;;;;;;27.70;6.00;;;;;;;12.91;36.85;100249.35;25120;1316;3027202;-63
2022/05/08 04:18:46;;;;;;;25.60;6.60;;;;;;;12.92;36.32;100250.15;25120;1315;3052203;-65
2022/05/08 04:21:15;;;;;;;27.20;5.70;;;;;;;12.96;35.91;100250.29;25126;1316;3026197;-63
2022/05/08 04:26:34;;;;;;;19.80;5.70;;;;;;;13.08;35.40;100249.77;25103;1315;3071132;-64
2022/05/08 04:29:04;;;;;;;19.80;5.60;;;;;;;13.13;34.92;100251.93;25134;1315;3026068;-64
2022/05/08 04:31:34;;;;;;;15.80;5.40;;;;;;;13.20;34.72;100252.27;25156;1316;3026783;-64
2022/05/08 04:34:04;;;;;;;22.00;4.80;;;;;;;13.31;34.59;100254.23;25157;1316;3026463;-62
2022/05/08 04:36:35;;;;;;;13.60;4.70;;;;;;;13.40;34.40;100255.31;25146;1316;3051074;-63
2022/05/08 04:39:04;;;;;;;16.80;4.70;;;;;;;13.45;34.11;100252.20;25101;1316;3026950;-64
2022/05/08 04:41:33;;;;;;;17.80;4.50;;;;;;;13.52;33.80;100257.06;25102;1316;3071138;-65
2022/05/08 04:44:03;;;;;;;20.60;5.10;;;;;;;13.63;34.03;100255.39;25131;1316;3027850;-64
2022/05/08 04:46:32;;;;;;;17.00;4.80;;;;;;;13.74;33.57;100256.09;25121;1316;3026654;-64
2022/05/08 04:49:04;;;;;;;19.80;5.00;;;;;;;13.84;33.42;100260.42;25096;1316;3028163;-66
2022/05/08 04:51:33;;;;;;;14.70;4.50;;;;;;;13.94;33.25;100259.25;25137;1316;3026246;-64
2022/05/08 04:54:02;;;;;;;25.60;5.40;;;;;;;14.04;32.81;100263.08;25107;1316;3053380;-65
2022/05/08 04:56:31;;;;;;;14.20;4.70;;;;;;;14.07;32.70;100262.01;25147;1316;3026456;-63
2022/05/08 04:59:00;;;;;;;24.90;5.30;;;;;;;14.15;32.38;100263.61;25087;1316;3048616;-65
2022/05/08 05:01:29;;;;;;;15.10;4.90;;;;;;;14.26;32.70;100264.86;25170;1316;3026754;-64
2022/05/08 05:03:59;;;;;;;22.00;5.20;;;;;;;14.38;32.56;100266.59;25104;1316;3067908;-63
2022/05/08 05:06:32;;;;;;;12.70;4.70;;;;;;;14.44;32.27;100266.02;25088;1316;3052186;-64
2022/05/08 05:09:01;;;;;;;19.50;4.40;;;;;;;14.48;32.12;100265.95;25152;1316;3026220;-63
2022/05/08 05:11:31;;;;;;;22.80;5.70;;;;;;;14.59;31.87;100262.20;25178;1316;3029705;-63
2022/05/08 05:14:03;;;;;;;25.70;4.60;;;;;;;14.63;31.61;100263.95;25158;1316;3029706;-65
2022/05/08 05:16:32;;;;;;;20.70;4.40;;;;;;;14.67;31.78;100255.93;25039;1316;3025939;-64
2022/05/08 05:19:01;;;;;;;22.30;5.10;;;;;;;14.73;31.76;100255.71;25128;1316;3026521;-65
2022/05/08 05:21:31;;;;;;;18.50;4.80;;;;;;;14.87;31.58;100254.45;25150;1316;3058744;-64
2022/05/08 05:24:00;;;;;;;19.20;4.90;;;;;;;14.93;31.63;100257.73;25123;1316;3028512;-65
2022/05/08 05:26:29;;;;;;;19.70;4.20;;;;;;;14.94;31.28;100262.64;25197;1316;3052323;-66
2022/05/08 05:28:58;;;;;;;24.80;5.00;;;;;;;15.07;31.27;100265.28;25148;1316;3026605;-65
2022/05/08 05:31:27;;;;;;;24.30;6.20;;;;;;;15.21;31.67;100265.42;25134;1315;3029014;-67
2022/05/08 05:33:56;;;;;;;18.40;5.60;;;;;;;15.32;32.46;100263.65;25133;1316;3054773;-69
2022/05/08 05:36:25;;;;;;;13.60;5.10;;;;;;;15.43;32.37;100261.81;25152;1316;3026339;-64
2022/05/08 05:38:54;;;;;;;16.40;5.00;;;;;;;15.48;32.28;100263.61;25147;1316;3054649;-66
2022/05/08 05:41:23;;;;;;;25.90;5.70;;;;;;;15.50;31.63;100265.92;25174;1316;3029667;-64
2022/05/08 05:43:52;;;;;;;23.40;5.40;;;;;;;15.57;31.99;100264.90;25097;1316;3050894;-63
2022/05/08 05:49:08;;;;;;;26.10;6.20;;;;;;;15.83;32.13;100267.42;25128;1316;3069351;-63
2022/05/08 05:51:37;;;;;;;23.40;5.40;;;;;;;15.90;32.11;100267.79;25109;1316;3027885;-65
2022/05/08 05:54:06;;;;;;;23.70;5.90;;;;;;;15.95;31.81;100267.42;25134;1316;3049972;-63
2022/05/08 05:56:35;;;;;;;24.80;5.70;;;;;;;16.03;31.61;100271.70;25039;1316;3026738;-64
2022/05/08 05:59:04;;;;;;;13.60;4.80;;;;;;;16.14;31.45;100267.03;25122;1316;3052222;-66
2022/05/08 06:01:33;;;;;;;17.20;5.20;;;;;;;16.25;31.37;100267.45;25135;1316;3028268;-62
2022/05/08 06:04:02;;;;;;;20.80;4.90;;;;;;;16.36;31.13;100265.98;25117;1316;3049514;-64
2022/05/08 06:06:31;;;;;;;17.40;5.10;;;;;;;16.41;31.45;100270.72;25156;1316;3028415;-65
2022/05/08 06:09:00;;;;;;;15.70;5.50;;;;;;;16.50;31.45;100272.19;25102;1316;3027575;-64
2022/05/08 06:11:29;;;;;;;19.70;5.90;;;;;;;16.56;31.76;100270.66;25149;1316;3049662;-65
2022/05/08 06:13:58;;;;;;;20.00;5.90;;;;;;;16.60;32.93;100266.84;25154;1316;3026311;-62
2022/05/08 06:16:27;;;;;;;23.00;5.90;;;;;;;16.64;33.70;100269.27;25151;1314;3055835;-64
2022/05/08 06:18:56;;;;;;;29.20;6.10;;;;;;;16.69;33.81;100271.70;25112;1316;3026933;-65
2022/05/08 06:21:25;;;;;;;25.20;5.60;;;;;;;16.79;33.73;100270.27;25155;1316;3054531;-65
2022/05/08 06:23:54;;;;;;;22.00;5.90;;;;;;;16.85;33.23;100262.76;25143;1316;3026845;-65
2022/05/08 06:26:25;;;;;;;22.70;5.80;;;;;;;16.89;33.20;100259.98;25158;1316;3026646;-65
2022/05/08 06:28:58;;;;;;;18.90;5.70;;;;;;;16.95;33.14;100260.77;25184;1316;3026236;-65
2022/05/08 06:31:27;;;;;;;27.00;6.20;;;;;;;16.97;33.63;100263.67;25216;1316;3058491;-65
2022/05/08 06:33:57;;;;;;;20.30;6.30;;;;;;;16.97;33.51;100263.34;25131;1316;3026033;-64
2022/05/08 06:36:26;;;;;;;29.50;5.40;;;;;;;17.02;32.88;100265.42;25139;1316;3025619;-65
2022/05/08 06:38:55;;;;;;;16.80;6.30;;;;;;;17.10;32.83;100266.73;25164;1316;3057835;-64
2022/05/08 06:41:24;;;;;;;26.70;5.60;;;;;;;17.15;32.36;100263.93;25114;1314;3026429;-67
2022/05/08 06:43:54;;;;;;;22.10;6.40;;;;;;;17.23;31.82;100265.05;25146;1316;3052167;-67
2022/05/08 06:46:23;;;;;;;21.10;5.60;;;;;;;17.32;32.02;100265.80;25111;1316;3026418;-68
2022/05/08 06:48:52;;;;;;;28.80;6.40;;;;;;;17.38;31.37;100265.16;25148;1314;3026097;-64
2022/05/08 06:51:21;;;;;;;18.70;5.60;;;;;;;17.48;31.20;100260.70;25152;1316;3052247;-65
2022/05/08 06:53:50;;;;;;;34.10;5.90;;;;;;;17.58;30.90;100257.66;25131;1316;3026714;-63
2022/05/08 06:56:20;;;;;;;24.80;6.80;;;;;;;17.68;29.88;100258.27;25098;1316;3055282;-66
2022/05/08 07:01:38;;;;;;;28.00;6.10;;;;;;;17.83;28.06;100256.59;25116;1316;3051908;-68
2022/05/08 07:04:08;;;;;;;15.30;5.60;;;;;;;17.86;28.78;100256.91;25186;1315;3028553;-65
2022/05/08 07:06:38;;;;;;;24.00;5.40;;;;;;;17.83;28.51;100261.05;25154;1316;3028731;-67
2022/05/08 07:09:07;;;;;;;29.10;6.10;;;;;;;17.92;28.35;100254.27;25166;1315;3027145;-66
2022/05/08 07:11:37;;;;;;;23.10;5.50;;;;;;;18.00;28.27;100255.67;25111;1316;3026440;-65
2022/05/08 07:14:06;;;;;;;24.80;5.30;;;;;;;18.10;28.05;100254.84;25153;1316;3052141;-64
2022/05/08 07:16:36;;;;;;;20.10;6.00;;;;;;;18.21;27.64;100257.33;25179;1316;3028000;-64
2022/05/08 07:19:05;;;;;;;26.90;5.80;;;;;;;18.31;27.01;100254.03;25192;1315;3026453;-64
2022/05/08 07:21:34;;;;;;;23.00;5.50;;;;;;;18.37;26.51;100254.09;25179;1316;3054958;-65
2022/05/08 07:24:04;;;;;;;18.10;5.50;;;;;;;18.45;25.22;100250.96;25401;1316;3028132;-65
2022/05/08 07:26:36;;;;;;;23.20;5.50;;;;;;;18.39;24.19;100250.25;25832;1316;3053475;-66
2022/05/08 07:29:07;;;;;;;21.80;5.60;;;;;;;18.48;24.41;100250.77;25855;1316;3052734;-65
2022/05/08 07:31:38;;;;;;;18.80;5.10;;;;;;;18.57;24.87;100248.63;25717;1316;3026720;-68
2022/05/08 07:36:56;;;;;;;18.90;5.00;;;;;;;18.70;24.61;100247.18;25133;1316;3053406;-64
2022/05/08 07:39:25;;;;;;;15.30;5.00;;;;;;;18.75;24.57;100238.09;25150;1316;3027957;-64
2022/05/08 07:41:54;;;;;;;19.30;5.30;;;;;;;18.86;24.35;100242.64;25117;1316;3054653;-64
2022/05/08 07:44:23;;;;;;;16.90;5.50;;;;;;;18.88;23.87;100238.98;25137;1316;3028144;-66
2022/05/08 07:46:52;;;;;;;24.00;6.10;;;;;;;18.94;23.79;100241.11;25117;1316;3026248;-65
2022/05/08 07:49:21;;;;;;;19.80;5.50;;;;;;;18.88;23.25;100238.83;25106;1316;3054442;-65
2022/05/08 07:51:50;;;;;;;14.10;6.00;;;;;;;18.93;23.65;100236.41;25126;1316;3027534;-65
2022/05/08 07:54:19;;;;;;;19.80;5.30;;;;;;;19.11;23.30;100231.63;25151;1316;3026615;-64
2022/05/08 07:56:48;;;;;;;17.90;4.90;;;;;;;19.22;21.99;100231.20;25124;1315;3052498;-65
2022/05/08 07:59:17;;;;;;;14.50;5.30;;;;;;;19.31;21.41;100223.02;25107;1316;3027068;-65
2022/05/08 08:01:47;;;;;;;17.20;5.30;;;;;;;19.32;21.41;100224.16;25118;1316;3051300;-66
2022/05/08 08:04:16;;;;;;;13.90;4.80;;;;;;;19.36;22.04;100222.04;25152;1315;3029084;-67
2022/05/08 08:06:45;;;;;;;20.20;5.50;;;;;;;19.41;22.37;100225.13;25077;1316;3069538;-65
2022/05/08 08:09:14;;;;;;;26.10;6.50;;;;;;;19.54;22.81;100225.95;25150;1316;3028862;-64
2022/05/08 08:11:56;;;;;;;23.80;7.30;;;;;;;19.64;23.17;100223.88;25180;1316;3054213;-65
2022/05/08 08:14:27;;;;;;;23.00;6.60;;;;;;;19.60;23.36;100221.73;25160;1316;3027503;-65
2022/05/08 08:16:56;;;;;;;27.70;8.10;;;;;;;19.55;23.89;100219.30;25150;1315;3026901;-64
2022/05/08 08:19:25;;;;;;;23.00;6.60;;;;;;;19.50;23.06;100218.52;25153;1316;3026195;-65
2022/05/08 08:21:55;;;;;;;25.30;7.20;;;;;;;19.62;22.97;100218.75;25186;1316;3070577;-66
2022/05/08 08:24:24;;;;;;;23.80;7.60;;;;;;;19.67;22.79;100219.20;25133;1315;3027683;-64
2022/05/08 08:26:53;;;;;;;34.80;7.10;;;;;;;19.68;22.79;100212.30;25121;1316;3026726;-68
2022/05/08 08:29:22;;;;;;;17.50;6.50;;;;;;;19.84;22.58;100215.20;25148;1315;3070398;-65
2022/05/08 08:31:51;;;;;;;26.90;7.00;;;;;;;20.02;22.46;100214.61;25159;1316;3029459;-65
2022/05/08 08:34:21;;;;;;;24.80;7.00;;;;;;;20.01;22.25;100212.48;25142;1315;3050950;-66
2022/05/08 08:36:50;;;;;;;20.70;7.80;;;;;;;20.06;22.43;100212.41;25105;1316;3029589;-68
2022/05/08 08:39:20;;;;;;;21.70;6.20;;;;;;;20.21;22.00;100207.41;25145;1316;3027163;-64
2022/05/08 08:41:55;;;;;;;19.10;6.60;;;;;;;20.22;21.28;100202.23;25150;1316;3053779;-66
2022/05/08 08:50:03;;;;;;;29.10;9.90;;;;;;;20.19;20.87;100199.75;25103;1316;3052832;-68
2022/05/08 08:52:33;;;;;;;25.40;10.20;;;;;;;20.28;20.77;100199.11;25173;1315;3028071;-64
2022/05/08 08:55:04;;;;;;;29.60;10.60;;;;;;;20.34;20.74;100202.06;25133;1316;3026565;-67
2022/05/08 08:57:33;;;;;;;37.00;11.30;;;;;;;20.35;20.92;100202.05;25162;1316;3026479;-65
2022/05/08 09:00:06;;;;;;;32.40;11.60;;;;;;;20.48;20.60;100194.98;25130;1316;3028203;-65
2022/05/08 09:02:37;;;;;;;24.50;10.30;;;;;;;20.54;20.53;100186.06;25158;1316;3055900;-67
2022/05/08 09:05:07;;;;;;;28.50;10.60;;;;;;;20.59;20.20;100191.96;25125;1316;3026850;-66
2022/05/08 09:07:41;;;;;;;28.20;11.10;;;;;;;20.66;20.17;100195.64;25107;1314;3052579;-67
2022/05/08 09:10:13;;;;;;;30.00;11.70;;;;;;;20.79;19.96;100196.09;25131;1316;3057733;-65
2022/05/08 09:13:00;;;;;;;29.70;12.30;;;;;;;20.68;19.41;100188.02;25118;1316;3054246;-66
2022/05/08 09:15:30;;;;;;;36.40;12.90;;;;;;;20.82;19.88;100179.28;25176;1315;3055949;-68
2022/05/08 09:18:06;;;;;;;33.10;11.80;;;;;;;20.91;19.98;100183.21;25189;1316;3026332;-66
2022/05/08 09:20:40;;;;;;;33.60;12.00;;;;;;;20.87;19.81;100179.51;25173;1316;3067080;-69
2022/05/08 09:23:21;;;;;;;39.10;14.60;;;;;;;20.96;19.59;100174.20;25146;1316;3051821;-65
2022/05/08 09:26:02;;;;;;;38.30;13.00;;;;;;;21.06;19.69;100168.87;25188;1316;3054996;-67
2022/05/08 09:28:34;;;;;;;31.30;13.10;;;;;;;21.16;19.61;100170.95;25130;1315;3052989;-66
2022/05/08 09:31:05;;;;;;;39.20;14.40;;;;;;;21.28;19.69;100173.20;25159;1315;3026492;-67
2022/05/08 09:33:44;;;;;;;48.20;16.60;;;;;;;21.44;19.43;100165.96;25117;1316;3026808;-66
2022/05/08 09:36:23;;;;;;;37.80;14.50;;;;;;;21.54;19.18;100163.25;25135;1315;3055396;-67
2022/05/08 09:39:00;;;;;;;28.70;13.20;;;;;;;21.58;19.34;100164.67;25142;1316;3051085;-67
2022/05/08 09:41:37;;;;;;;35.50;14.70;;;;;;;21.67;19.46;100163.17;25159;1314;3068856;-64
2022/05/08 09:44:13;;;;;;;36.40;15.50;;;;;;;21.68;19.40;100160.54;25124;1316;3049607;-65
2022/05/08 09:46:46;;;;;;;34.00;15.90;;;;;;;21.82;19.35;100159.59;25130;1316;3052389;-64
2022/05/08 09:49:20;;;;;;;44.50;16.60;;;;;;;21.94;19.60;100161.56;25117;1316;3055012;-66
2022/05/08 09:51:49;;;;;;;43.70;16.70;;;;;;;22.03;19.30;100158.22;25164;1315;3058629;-64
2022/05/08 09:54:18;;;;;;;41.30;17.60;;;;;;;22.02;19.23;100155.44;25143;1315;3026634;-67
2022/05/08 09:56:49;;;;;;;43.40;17.10;;;;;;;21.97;19.24;100156.17;25142;1316;3054749;-64
2022/05/08 09:59:19;;;;;;;38.60;18.40;;;;;;;22.06;19.27;100157.39;25133;1316;3029122;-67
2022/05/08 10:01:49;;;;;;;45.30;18.30;;;;;;;22.25;18.98;100156.94;25193;1315;3026997;-65
2022/05/08 10:04:18;;;;;;;43.40;19.80;;;;;;;22.33;18.45;100157.77;25149;1316;3027124;-66
2022/05/08 10:06:47;;;;;;;45.90;20.40;;;;;;;22.41;18.17;100158.46;25164;1316;3055971;-66
2022/05/08 10:14:52;;;;;;;48.60;20.50;;;;;;;22.57;18.11;100148.10;25163;1316;3054142;-66
2022/05/08 10:17:30;;;;;;;59.10;22.10;;;;;;;22.66;17.99;100144.15;25152;1316;3027689;-67
2022/05/08 10:20:00;;;;;;;62.00;23.20;;;;;;;22.72;17.94;100140.38;25198;1315;3048924;-64
2022/05/08 10:22:45;;;;;;;48.30;21.60;;;;;;;22.78;17.73;100137.84;25216;1316;3026585;-64
2022/05/08 10:25:18;;;;;;;55.40;21.60;;;;;;;22.78;17.66;100135.07;25115;1316;3054967;-62
2022/05/08 10:28:06;;;;;;;49.10;20.40;;;;;;;22.93;18.10;100124.20;25181;1314;3026346;-68
2022/05/08 10:30:35;;;;;;;52.50;20.50;;;;;;;22.94;18.31;100126.31;25157;1316;3053012;-66
2022/05/08 10:33:04;;;;;;;43.90;18.90;;;;;;;23.09;17.86;100124.83;25146;1316;3028714;-69
2022/05/08 10:35:34;;;;;;;40.80;18.40;;;;;;;23.16;17.38;100123.55;25131;1316;3027340;-68
2022/05/08 10:38:03;;;;;;;44.30;18.20;;;;;;;23.23;17.25;100122.48;25170;1313;3026239;-67
2022/05/08 10:40:33;;;;;;;46.30;17.10;;;;;;;23.16;17.45;100123.98;25147;1316;3026254;-66
2022/05/08 10:43:10;;;;;;;40.30;17.30;;;;;;;23.28;17.60;100119.86;25162;1313;3050716;-66
2022/05/08 10:45:42;;;;;;;37.10;15.90;;;;;;;23.28;17.43;100116.13;25115;1316;3071194;-66
2022/05/08 10:48:14;;;;;;;38.30;17.00;;;;;;;23.30;17.28;100115.85;25180;1313;3029219;-66
2022/05/08 10:50:48;;;;;;;41.50;18.30;;;;;;;23.39;17.41;100114.25;25218;1312;3026217;-65
2022/05/08 10:53:26;;;;;;;44.90;18.50;;;;;;;23.38;17.77;100108.28;25200;1316;3052064;-63
2022/05/08 10:56:04;;;;;;;43.20;17.40;;;;;;;23.34;17.95;100105.12;25149;1313;3057712;-64
2022/05/08 10:58:33;;;;;;;43.00;17.80;;;;;;;23.35;17.80;100099.09;25172;1313;3052825;-65
2022/05/08 11:01:04;;;;;;;42.80;17.70;;;;;;;23.39;17.81;100100.18;25168;1313;3026217;-68
2022/05/08 11:03:35;;;;;;;41.00;18.50;;;;;;;23.52;17.76;100099.09;25211;1313;3057540;-69
2022/05/08 11:06:05;;;;;;;53.80;18.00;;;;;;;23.59;17.53;100098.77;25149;1313;3026703;-68
2022/05/08 11:08:37;;;;;;;39.20;19.10;;;;;;;23.60;17.69;100100.66;25155;1313;3054725;-64
2022/05/08 11:11:08;;;;;;;46.70;20.40;;;;;;;23.68;17.69;100099.08;25116;1313;3026368;-65
2022/05/08 11:13:44;;;;;;;53.60;19.70;;;;;;;23.75;17.53;100090.61;25171;1313;3027214;-64
2022/05/08 11:16:42;;;;;;;51.20;21.00;;;;;;;23.88;17.24;100092.13;25185;1313;3053098;-66
2022/05/08 11:19:12;;;;;;;47.00;21.10;;;;;;;23.95;17.73;100088.36;25165;1313;3054724;-68
2022/05/08 11:21:40;;;;;;;51.30;22.00;;;;;;;24.06;17.78;100079.16;25168;1312;3026530;-67
2022/05/08 11:24:22;;;;;;;50.90;21.90;;;;;;;24.12;17.21;100076.39;25156;1312;3054770;-69
2022/05/08 11:26:51;;;;;;;64.00;22.10;;;;;;;24.22;16.80;100074.32;25153;1312;3051023;-64
2022/05/08 11:29:20;;;;;;;48.60;19.80;;;;;;;24.29;16.83;100068.73;25092;1316;3026540;-64
2022/05/08 11:36:04;;;;;;;51.90;19.10;;;;;;;24.31;17.02;100067.67;25213;1312;3026416;-64
2022/05/08 11:37:28;;;;;;;41.30;17.30;;;;;;;24.35;17.02;100058.96;25135;1312;3071136;-65
2022/05/08 11:39:57;;;;;;;48.10;19.80;;;;;;;24.37;16.97;100056.79;25196;1312;3026582;-66
2022/05/08 11:42:26;;;;;;;42.30;18.30;;;;;;;24.35;16.87;100051.85;25100;1315;3051918;-68
2022/05/08 11:45:06;;;;;;;43.00;18.10;;;;;;;24.48;16.86;100052.34;25142;1313;3026148;-65
2022/05/08 11:47:35;;;;;;;45.30;19.50;;;;;;;24.54;16.73;100045.64;25153;1312;3049133;-66
2022/05/08 11:50:05;;;;;;;36.90;18.50;;;;;;;24.58;16.79;100042.14;25167;1313;3026748;-69
2022/05/08 11:52:35;;;;;;;45.40;18.00;;;;;;;24.65;16.99;100045.54;25184;1312;3069339;-64